KJWY

Mid-Way Regional Airport

Midlothian/Waxahachie, Texas, USA
METAR KJWY 242115Z AUTO 21005KT 10SM SCT028 SCT037 OVC060 26/21 A2989 RMK AO2 T02620206
Observed Flight Rules
Sep-24 @ 21:15 UTC (8 minutes ago) Visual Flight Rules
Wind Visibility Clouds
210° at 5 knots 10 miles
  • Scattered at 2,800' AGL
  • Scattered at 3,700' AGL
  • Overcast at 6,000' AGL
Temperatures Readings
Current 26°C / 79°F
Dewpoint 21°C / 70°F
Humidity 74%
Altimeter 29.89" Hg
Pressure 1012 hPa
Elevation 217
METAR KJWY 242115Z AUTO 21005KT 10SM SCT028 SCT037 OVC060 26/21 A2989 RMK AO2 T02620206
Observed Flight Rules
Sep-24 @ 21:15 UTC
(8 minutes ago)
VFR
Wind Visibility
210° at 5 knots 10 miles
Clouds
  • Scattered at 2,800' AGL
  • Scattered at 3,700' AGL
  • Overcast at 6,000' AGL
Temperature Dewpoint
26°C / 79°F 21°C / 70°F
Humidity Altimeter Pressure
74% 29.89" Hg 1012 hPa